createdAt,value
2022-09-03T00:02:15.847Z,100094.91
2022-09-03T00:05:06.669Z,100206.00
2022-09-03T00:07:43.652Z,100119.63
2022-09-03T00:10:15.758Z,100152.06
2022-09-03T00:12:45.710Z,99944.31
2022-09-03T00:15:16.094Z,99821.31
2022-09-03T00:17:48.909Z,100190.84
2022-09-03T00:20:21.661Z,100205.00
2022-09-03T00:22:52.390Z,100015.38
2022-09-03T00:25:26.693Z,99984.31
2022-09-03T00:27:58.861Z,99919.00
2022-09-03T00:30:28.041Z,100043.59
2022-09-03T00:33:01.887Z,99886.63
2022-09-03T00:35:36.871Z,99993.34
2022-09-03T00:38:06.809Z,100212.72
2022-09-03T00:40:54.425Z,99779.81
2022-09-03T00:43:34.431Z,99667.41
2022-09-03T00:46:11.348Z,99927.03
2022-09-03T00:48:54.032Z,100223.97
2022-09-03T00:51:33.447Z,100014.19
2022-09-03T00:54:10.614Z,99712.78
2022-09-03T00:56:47.708Z,99998.06
2022-09-03T00:59:28.017Z,99763.53
2022-09-03T01:02:14.537Z,99821.50
2022-09-03T01:04:58.237Z,99672.22
2022-09-03T01:07:40.100Z,99842.16
2022-09-03T01:10:27.390Z,100021.63
2022-09-03T01:13:02.173Z,99972.91
2022-09-03T01:15:40.054Z,100095.34
2022-09-03T01:18:18.819Z,100171.81
2022-09-03T01:20:55.515Z,99838.53
2022-09-03T01:23:55.320Z,100193.94
2022-09-03T01:26:33.911Z,100037.28
2022-09-03T01:29:16.169Z,100009.28
2022-09-03T01:31:54.340Z,99876.34
2022-09-03T01:34:34.243Z,99914.72
2022-09-03T01:37:16.900Z,99852.78
2022-09-03T01:39:59.558Z,100215.47
2022-09-03T01:42:41.132Z,100201.78
2022-09-03T01:45:33.854Z,100193.22
2022-09-03T01:48:33.549Z,100190.69
2022-09-03T01:51:12.195Z,99914.94
2022-09-03T01:53:57.607Z,100190.69
2022-09-03T01:56:37.883Z,99921.75
2022-09-03T01:59:15.040Z,99899.88
2022-09-03T02:01:48.068Z,100160.13
2022-09-03T02:04:20.520Z,100192.59
2022-09-03T02:06:49.793Z,100126.44
2022-09-03T02:09:18.435Z,100195.25
2022-09-03T02:11:52.109Z,100126.50
2022-09-03T02:14:20.644Z,99948.50
2022-09-03T02:16:50.468Z,99910.97
2022-09-03T02:19:19.703Z,100159.06
2022-09-03T02:21:52.638Z,100106.97
2022-09-03T02:24:20.966Z,100068.22
2022-09-03T02:26:48.919Z,99903.84
2022-09-03T02:29:18.500Z,99915.19
2022-09-03T02:31:46.510Z,99847.25
2022-09-03T02:34:16.183Z,99752.66
2022-09-03T02:36:46.375Z,100173.44
2022-09-03T02:39:15.290Z,100100.81
2022-09-03T02:41:43.869Z,99644.25
2022-09-03T02:44:17.628Z,100212.91
2022-09-03T02:46:51.568Z,99973.19
2022-09-03T02:49:20.792Z,99802.69
2022-09-03T02:51:48.745Z,100002.38
2022-09-03T02:54:20.748Z,99923.25
2022-09-03T02:56:49.786Z,99749.16
2022-09-03T02:59:18.185Z,100180.34
2022-09-03T03:01:46.646Z,99786.25
2022-09-03T03:04:14.911Z,99569.72
2022-09-03T03:06:47.717Z,99851.66
2022-09-03T03:09:15.898Z,100173.22
2022-09-03T03:11:44.173Z,99943.66
2022-09-03T03:14:12.244Z,99910.81
2022-09-03T03:16:40.228Z,99838.66
2022-09-03T03:19:08.391Z,100124.63
2022-09-03T03:21:36.458Z,99867.69
2022-09-03T03:24:07.058Z,100136.41
2022-09-03T03:26:35.090Z,99685.94
2022-09-03T03:29:05.049Z,99852.63
2022-09-03T03:31:33.832Z,100017.44
2022-09-03T03:34:04.273Z,99647.31
2022-09-03T03:36:34.760Z,99978.22
2022-09-03T03:39:03.104Z,99904.31
2022-09-03T03:41:33.724Z,99920.13
2022-09-03T03:44:03.380Z,99905.00
2022-09-03T03:46:34.637Z,99996.31
2022-09-03T03:49:02.944Z,99890.97
2022-09-03T03:51:32.620Z,99982.38
2022-09-03T03:54:04.473Z,99608.31
2022-09-03T03:56:34.824Z,100052.06
2022-09-03T03:59:02.982Z,100067.00
2022-09-03T04:01:31.235Z,100104.81
2022-09-03T04:04:00.570Z,99844.69
2022-09-03T04:06:29.576Z,100163.41
2022-09-03T04:08:58.810Z,100162.41
2022-09-03T04:11:27.209Z,99729.66
2022-09-03T04:13:59.966Z,100075.34
2022-09-03T04:16:29.609Z,99960.03
2022-09-03T04:18:58.291Z,100131.97
2022-09-03T04:21:28.557Z,99939.22
2022-09-03T04:23:57.636Z,99989.03
2022-09-03T04:26:28.343Z,100150.22
2022-09-03T04:28:58.143Z,99866.69
2022-09-03T04:31:26.652Z,100161.28
2022-09-03T04:33:55.752Z,99843.94
2022-09-03T04:36:25.757Z,99879.91
2022-09-03T04:38:55.533Z,100166.41
2022-09-03T04:41:25.916Z,100050.44
2022-09-03T04:43:54.731Z,99821.91
2022-09-03T04:46:26.800Z,100182.53
2022-09-03T04:48:57.049Z,100133.06
2022-09-03T04:51:28.114Z,100158.13
2022-09-03T04:53:58.601Z,100060.34
2022-09-03T04:56:28.818Z,100177.84
2022-09-03T04:58:59.296Z,100087.91
2022-09-03T05:01:32.667Z,99998.19
2022-09-03T05:04:01.404Z,99985.03
2022-09-03T05:06:31.615Z,99620.38
2022-09-03T05:09:00.320Z,99920.19
2022-09-03T05:11:29.684Z,99839.94
2022-09-03T05:14:00.946Z,99899.75
2022-09-03T05:16:52.610Z,100017.53
2022-09-03T05:19:21.463Z,100084.97
2022-09-03T05:21:49.603Z,99948.19
2022-09-03T05:24:18.663Z,99714.09
2022-09-03T05:26:49.041Z,99739.28
2022-09-03T05:29:19.980Z,100164.16
2022-09-03T05:31:49.581Z,100166.97
2022-09-03T05:34:18.461Z,100171.72
2022-09-03T05:36:47.077Z,100170.44
2022-09-03T05:39:15.541Z,100169.06
2022-09-03T05:41:43.850Z,100168.63
2022-09-03T05:44:12.194Z,100166.41
2022-09-03T05:46:40.398Z,100130.31
2022-09-03T05:49:11.651Z,100163.19
2022-09-03T05:51:40.585Z,99989.16
2022-09-03T05:54:09.771Z,100163.19
2022-09-03T05:56:41.057Z,100169.56
2022-09-03T05:59:11.100Z,100168.28
2022-09-03T06:01:41.261Z,100132.75
2022-09-03T06:04:17.057Z,100127.47
2022-09-03T06:06:46.906Z,100163.94
2022-09-03T06:09:18.490Z,100167.56
2022-09-03T06:11:50.359Z,100173.75
2022-09-03T06:14:20.399Z,100074.50
2022-09-03T06:16:50.117Z,100176.06
2022-09-03T06:19:20.606Z,100132.81
2022-09-03T06:21:48.966Z,100159.72
2022-09-03T06:24:19.129Z,100182.16
2022-09-03T06:26:48.464Z,100157.47
2022-09-03T06:29:18.420Z,100180.78
2022-09-03T06:31:52.605Z,100105.88
2022-09-03T06:34:28.337Z,100128.19
2022-09-03T06:36:56.319Z,100101.66
2022-09-03T06:39:25.536Z,100177.25
2022-09-03T06:41:54.041Z,100177.09
2022-09-03T06:44:28.608Z,100181.72
2022-09-03T06:47:00.358Z,100183.66
2022-09-03T06:49:31.560Z,100169.88
2022-09-03T06:51:59.705Z,100176.88
2022-09-03T06:54:27.900Z,100171.69
2022-09-03T06:56:56.234Z,100172.94
2022-09-03T06:59:24.460Z,100172.25
2022-09-03T07:02:07.115Z,100172.97
2022-09-03T07:04:36.951Z,100094.41
2022-09-03T07:07:05.449Z,100169.78
2022-09-03T07:09:36.205Z,99991.41
2022-09-03T07:12:04.412Z,100167.59
2022-09-03T07:14:32.961Z,100185.16
2022-09-03T07:17:01.145Z,100179.97
2022-09-03T07:19:29.155Z,99990.94
2022-09-03T07:21:58.614Z,100190.69
2022-09-03T07:24:27.815Z,100186.22
2022-09-03T07:26:58.124Z,100139.81
2022-09-03T07:29:26.119Z,99929.91
2022-09-03T07:31:54.423Z,99826.50
2022-09-03T07:34:26.706Z,100045.78
2022-09-03T07:36:55.267Z,100053.38
2022-09-03T07:39:24.856Z,100190.47
2022-09-03T07:41:52.993Z,100161.72
2022-09-03T07:44:22.759Z,100045.19
2022-09-03T07:46:52.094Z,100199.56
2022-09-03T07:49:22.483Z,100135.66
2022-09-03T07:51:54.682Z,100193.31
2022-09-03T07:54:26.476Z,100195.75
2022-09-03T07:57:10.198Z,100195.94
2022-09-03T07:59:40.888Z,100166.88
2022-09-03T08:02:10.169Z,100201.56
2022-09-03T08:04:38.548Z,100166.41
2022-09-03T08:07:06.762Z,100180.06
2022-09-03T08:09:36.232Z,100210.25
2022-09-03T08:12:05.696Z,100212.16
2022-09-03T08:14:37.767Z,100216.00
2022-09-03T08:17:12.687Z,100219.13
2022-09-03T08:19:42.133Z,100220.69
2022-09-03T08:22:10.667Z,100216.41
2022-09-03T08:24:40.515Z,99935.78
2022-09-03T08:27:09.782Z,100220.41
2022-09-03T08:30:28.622Z,100224.38
2022-09-03T08:37:18.762Z,99971.38
2022-09-03T08:40:50.132Z,100222.50
2022-09-03T08:46:05.071Z,100154.06
2022-09-03T08:48:34.977Z,100226.22
2022-09-03T08:51:04.816Z,100116.88
2022-09-03T08:53:41.448Z,99936.00
2022-09-03T08:56:14.620Z,99969.91
2022-09-03T08:58:43.928Z,100023.97
2022-09-03T09:01:24.847Z,100024.53
2022-09-03T09:04:03.833Z,100121.78
2022-09-03T09:06:40.287Z,100067.63
2022-09-03T09:09:55.804Z,100217.38
2022-09-03T09:13:39.607Z,100217.69
2022-09-03T09:16:39.902Z,100223.09
2022-09-03T09:19:35.671Z,99960.38
2022-09-03T09:22:12.688Z,100221.69
2022-09-03T09:24:46.130Z,100159.19
2022-09-03T09:27:26.529Z,100212.56
2022-09-03T09:29:56.429Z,100214.53
2022-09-03T09:32:40.537Z,99990.81
2022-09-03T09:35:12.695Z,100168.44
2022-09-03T09:37:57.757Z,100160.41
2022-09-03T09:47:26.678Z,100129.56
2022-09-03T09:54:21.719Z,100213.47
2022-09-03T09:57:02.524Z,100214.56
2022-09-03T09:59:33.396Z,100177.03
2022-09-03T10:02:22.267Z,100110.50
2022-09-03T10:06:17.458Z,100209.56
2022-09-03T10:08:49.801Z,100193.09
2022-09-03T10:25:00.190Z,100209.31
2022-09-03T10:27:30.273Z,100210.53
2022-09-03T10:30:00.990Z,99971.38
2022-09-03T10:33:23.491Z,100215.88
2022-09-03T10:36:19.177Z,100214.91
2022-09-03T10:38:54.816Z,100204.41
2022-09-03T10:41:42.472Z,100203.75
2022-09-03T10:44:35.639Z,100161.94
2022-09-03T10:47:23.066Z,100198.91
2022-09-03T10:50:02.508Z,100168.47
2022-09-03T10:52:55.171Z,100197.97
2022-09-03T10:56:13.877Z,100198.41
2022-09-03T10:59:33.982Z,100185.63
2022-09-03T11:02:31.643Z,100168.19
2022-09-03T11:05:04.661Z,100190.19
2022-09-03T11:07:38.643Z,100181.94
2022-09-03T11:10:15.806Z,100173.63
2022-09-03T11:12:49.252Z,100084.50
2022-09-03T11:16:08.406Z,100128.53
2022-09-03T11:22:23.822Z,100183.78
2022-09-03T11:25:07.369Z,100101.88
2022-09-03T11:28:13.810Z,100185.34
2022-09-03T11:30:54.414Z,100167.75
2022-09-03T11:33:31.204Z,100156.06
2022-09-03T11:36:02.939Z,100165.94
2022-09-03T11:39:59.534Z,100166.94
2022-09-03T11:42:37.853Z,100165.88
2022-09-03T11:45:23.158Z,100129.47
2022-09-03T11:47:55.262Z,100155.75
2022-09-03T11:51:34.602Z,100158.25
2022-09-03T11:57:44.216Z,100085.53
2022-09-03T12:00:27.184Z,100136.56
2022-09-03T12:03:03.520Z,100148.97
2022-09-03T12:06:02.194Z,100148.19
2022-09-03T12:09:02.575Z,100087.97
2022-09-03T12:11:43.733Z,99966.34
2022-09-03T12:15:02.751Z,100145.22
2022-09-03T12:17:36.598Z,100144.78
2022-09-03T12:20:14.159Z,100150.06
2022-09-03T12:22:42.486Z,100008.81
2022-09-03T12:25:15.106Z,100152.88
2022-09-03T12:27:45.797Z,100145.31
2022-09-03T12:30:18.410Z,100147.97
2022-09-03T12:32:48.787Z,100141.25
2022-09-03T12:38:13.841Z,99953.75
2022-09-03T12:43:37.585Z,100058.00
2022-09-03T12:46:10.679Z,100126.53
2022-09-03T12:48:43.617Z,100039.81
2022-09-03T12:54:01.397Z,100128.75
2022-09-03T12:56:35.170Z,100048.97
2022-09-03T12:59:06.855Z,99949.34
2022-09-03T13:01:43.957Z,100109.25
2022-09-03T13:04:17.029Z,100096.88
2022-09-03T13:06:54.111Z,99877.22
2022-09-03T13:09:24.943Z,99906.13
2022-09-03T13:11:55.643Z,100106.63
2022-09-03T13:14:30.400Z,99784.72
2022-09-03T13:17:25.012Z,100117.16
2022-09-03T13:20:06.938Z,100025.19
2022-09-03T13:23:19.578Z,100065.47
2022-09-03T13:25:57.825Z,100112.41
2022-09-03T13:28:44.469Z,99895.22
2022-09-03T13:31:28.213Z,99921.63
2022-09-03T13:34:03.010Z,100048.06
2022-09-03T13:36:39.899Z,100110.66
2022-09-03T13:39:22.218Z,100103.78
2022-09-03T13:41:56.221Z,100053.34
2022-09-03T13:44:40.736Z,100098.63
2022-09-03T13:47:15.781Z,99904.97
2022-09-03T13:50:13.462Z,99897.06
2022-09-03T13:52:47.646Z,100103.22
2022-09-03T13:55:23.162Z,100095.22
2022-09-03T13:58:01.733Z,100008.13
2022-09-03T14:00:41.306Z,100091.69
2022-09-03T14:03:14.618Z,99666.06
2022-09-03T14:06:01.482Z,100096.63
2022-09-03T14:08:35.613Z,100098.44
2022-09-03T14:11:21.771Z,99988.00
2022-09-03T14:14:01.997Z,100084.19
2022-09-03T14:16:43.097Z,100017.56
2022-09-03T14:19:36.217Z,100022.69
2022-09-03T14:27:12.345Z,100099.72
2022-09-03T14:30:03.180Z,100045.59
2022-09-03T14:32:48.269Z,100060.63
2022-09-03T14:35:33.021Z,100080.44
2022-09-03T14:42:01.438Z,99904.63
2022-09-03T14:44:46.313Z,100099.97
2022-09-03T14:47:30.051Z,100028.75
2022-09-03T14:50:12.067Z,100098.63
2022-09-03T14:53:00.985Z,100100.53
2022-09-03T14:56:00.124Z,100103.16
2022-09-03T14:58:50.007Z,100111.09
2022-09-03T15:01:26.977Z,100108.66
2022-09-03T15:04:26.507Z,99885.66
2022-09-03T15:07:14.286Z,100032.13
2022-09-03T15:09:48.229Z,99952.22
2022-09-03T15:12:22.259Z,100107.06
2022-09-03T15:14:55.827Z,99962.53
2022-09-03T15:17:41.866Z,100106.22
2022-09-03T15:20:21.882Z,100052.66
2022-09-03T15:23:13.222Z,100109.06
2022-09-03T15:26:07.598Z,99874.66
2022-09-03T15:28:47.045Z,100122.75
2022-09-03T15:31:23.635Z,99957.59
2022-09-03T15:33:58.634Z,99982.16
2022-09-03T15:36:29.519Z,100079.72
2022-09-03T15:39:03.227Z,100098.50
2022-09-03T15:41:39.736Z,100128.59
2022-09-03T15:44:18.423Z,100133.66
2022-09-03T15:46:57.759Z,100064.59
2022-09-03T15:49:38.995Z,99998.00
2022-09-03T15:52:21.078Z,99935.28
2022-09-03T15:55:02.465Z,100141.94
2022-09-03T15:57:36.873Z,100150.34
2022-09-03T16:00:10.798Z,100147.72
2022-09-03T16:02:45.898Z,100064.75
2022-09-03T16:05:19.052Z,100154.94
2022-09-03T16:08:05.962Z,100079.91
2022-09-03T16:10:46.912Z,100169.72
2022-09-03T16:13:33.750Z,100005.97
2022-09-03T16:16:03.544Z,100188.72
2022-09-03T16:18:36.303Z,100170.97
2022-09-03T16:21:07.858Z,100199.59
2022-09-03T16:23:42.455Z,100148.53
2022-09-03T16:26:17.362Z,100155.97
2022-09-03T16:28:53.312Z,100203.56
2022-09-03T16:31:39.884Z,100207.38
2022-09-03T16:34:18.981Z,100208.56
2022-09-03T16:36:56.747Z,100221.88
2022-09-03T16:39:34.156Z,100214.41
2022-09-03T16:42:11.625Z,100216.75
2022-09-03T16:44:52.828Z,99957.16
2022-09-03T16:47:34.481Z,99880.47
2022-09-03T16:50:15.223Z,100232.00
2022-09-03T16:52:53.798Z,100135.59
2022-09-03T16:55:27.595Z,99963.78
2022-09-03T16:58:10.817Z,100186.25
2022-09-03T17:00:51.234Z,100056.31
2022-09-03T17:03:41.121Z,100233.44
2022-09-03T17:06:22.620Z,100197.22
2022-09-03T17:08:58.544Z,100201.75
2022-09-03T17:11:43.419Z,100167.78
2022-09-03T17:14:42.716Z,100117.75
2022-09-03T17:17:22.678Z,100179.78
2022-09-03T17:19:57.902Z,100013.91
2022-09-03T17:22:40.883Z,100052.63
2022-09-03T17:25:22.289Z,100155.16
2022-09-03T17:27:54.382Z,100144.66
2022-09-03T17:30:30.803Z,100106.75
2022-09-03T17:33:35.374Z,100248.78
2022-09-03T17:36:12.148Z,100074.19
2022-09-03T17:39:17.527Z,100245.88
2022-09-03T17:41:53.182Z,100242.41
2022-09-03T17:44:35.547Z,100248.63
2022-09-03T17:47:17.492Z,100222.75
2022-09-03T17:49:50.448Z,100134.66
2022-09-03T17:52:29.689Z,100128.16
2022-09-03T17:55:01.337Z,100068.25
2022-09-03T17:57:33.234Z,100214.66
2022-09-03T18:00:04.248Z,100173.28
2022-09-03T18:02:44.482Z,100189.69
2022-09-03T18:05:19.904Z,100265.63
2022-09-03T18:07:55.729Z,100265.44
2022-09-03T18:10:31.228Z,100259.19
2022-09-03T18:13:08.427Z,100243.13
2022-09-03T18:15:40.645Z,100072.56
2022-09-03T18:18:18.303Z,100242.91
2022-09-03T18:21:23.273Z,100256.31
2022-09-03T18:24:19.942Z,100270.91
2022-09-03T18:27:14.121Z,100197.88
2022-09-03T18:30:05.688Z,100236.00
2022-09-03T18:32:51.718Z,100183.66
2022-09-03T18:35:38.907Z,100109.69
2022-09-03T18:38:24.359Z,100286.34
2022-09-03T18:41:15.344Z,100308.75
2022-09-03T18:44:10.464Z,100125.06
2022-09-03T18:48:01.694Z,100288.25
2022-09-03T18:50:19.315Z,100291.47
2022-09-03T18:53:14.428Z,99990.06
2022-09-03T18:56:14.347Z,100286.06
2022-09-03T18:59:12.394Z,100288.47
2022-09-03T19:02:00.715Z,100301.31
2022-09-03T19:05:00.708Z,100291.22
2022-09-03T19:08:00.439Z,100311.06
2022-09-03T19:10:59.166Z,100317.50
2022-09-03T19:13:51.963Z,100330.69
2022-09-03T19:16:49.391Z,100335.22
2022-09-03T19:20:06.806Z,100335.59
2022-09-03T19:22:54.224Z,100349.88
2022-09-03T19:25:41.064Z,100335.94
2022-09-03T19:28:34.646Z,100346.28
2022-09-03T19:31:43.422Z,100353.78
2022-09-03T19:34:45.366Z,100359.69
2022-09-03T19:37:36.887Z,100365.63
2022-09-03T19:40:43.308Z,100366.19
2022-09-03T19:43:38.403Z,100313.31
2022-09-03T19:46:29.319Z,100362.97
2022-09-03T19:49:22.014Z,100221.19
2022-09-03T19:52:18.154Z,100372.66
2022-09-03T19:55:05.989Z,100379.13
2022-09-03T19:57:51.400Z,100375.19
2022-09-03T20:00:48.167Z,100292.56
2022-09-03T20:03:34.481Z,99780.28
2022-09-03T20:06:23.750Z,100380.00
2022-09-03T20:09:10.198Z,100380.31
2022-09-03T20:11:40.301Z,100378.91
2022-09-03T20:14:14.953Z,100332.78
2022-09-03T20:16:56.381Z,100392.38
2022-09-03T20:19:36.850Z,100389.97
2022-09-03T20:22:13.147Z,100204.97
2022-09-03T20:24:56.559Z,100246.84
2022-09-03T20:27:37.347Z,100394.09
2022-09-03T20:30:09.285Z,100330.44
2022-09-03T20:32:57.950Z,100382.97
2022-09-03T20:35:41.894Z,100354.94
2022-09-03T20:38:28.626Z,100393.72
2022-09-03T20:41:08.785Z,100398.34
2022-09-03T20:43:50.903Z,100234.56
2022-09-03T20:46:31.045Z,100371.75
2022-09-03T20:49:09.816Z,100401.81
2022-09-03T20:51:43.246Z,100402.94
2022-09-03T20:54:18.532Z,100156.44
2022-09-03T20:57:00.532Z,100406.16
2022-09-03T20:59:44.481Z,100314.72
2022-09-03T21:02:25.834Z,100390.94
2022-09-03T21:05:07.040Z,100241.75
2022-09-03T21:07:45.799Z,100401.59
2022-09-03T21:10:21.102Z,100410.97
2022-09-03T21:12:54.625Z,100413.91
2022-09-03T21:15:29.635Z,100412.31
2022-09-03T21:18:07.958Z,100411.72
2022-09-03T21:20:45.851Z,100316.91
2022-09-03T21:23:20.985Z,100411.19
2022-09-03T21:25:56.860Z,100416.59
2022-09-03T21:28:31.091Z,100369.03
2022-09-03T21:31:03.592Z,100314.38
2022-09-03T21:33:36.053Z,100412.84
2022-09-03T21:36:10.524Z,100367.16
2022-09-03T21:38:49.250Z,100317.13
2022-09-03T21:41:23.119Z,100224.53
2022-09-03T21:43:57.846Z,100371.94
2022-09-03T21:46:32.269Z,100365.38
2022-09-03T21:49:03.670Z,100423.34
2022-09-03T21:51:39.787Z,100420.13
2022-09-03T21:54:12.723Z,100364.28
2022-09-03T21:57:06.745Z,100420.72
2022-09-03T22:00:12.546Z,100429.28
2022-09-03T22:02:42.082Z,100435.53
2022-09-03T22:05:10.441Z,100367.41
2022-09-03T22:07:53.944Z,100196.19
2022-09-03T22:10:26.780Z,100441.25
2022-09-03T22:13:09.412Z,100442.28
2022-09-03T22:15:38.817Z,100442.50
2022-09-03T22:18:15.434Z,100438.31
2022-09-03T22:20:57.864Z,100420.97
2022-09-03T22:23:42.871Z,100441.94
2022-09-03T22:26:25.247Z,100362.03
2022-09-03T22:29:06.982Z,100439.75
2022-09-03T22:31:47.260Z,100436.47
2022-09-03T22:34:34.726Z,100411.97
2022-09-03T22:37:04.005Z,100447.25
2022-09-03T22:39:39.572Z,100443.00
2022-09-03T22:42:23.462Z,100436.22
2022-09-03T22:45:19.785Z,100438.16
2022-09-03T22:47:59.033Z,100399.31
2022-09-03T22:50:32.534Z,100435.22
2022-09-03T22:53:13.229Z,100433.66
2022-09-03T22:55:47.621Z,100438.19
2022-09-03T22:58:22.210Z,100436.63
2022-09-03T23:00:54.490Z,100437.56
2022-09-03T23:03:28.229Z,100447.91
2022-09-03T23:06:04.578Z,100447.16
2022-09-03T23:08:36.482Z,100410.97
2022-09-03T23:11:10.840Z,100466.41
2022-09-03T23:13:42.830Z,100461.28
2022-09-03T23:16:18.639Z,100190.59
2022-09-03T23:18:49.561Z,100236.63
